Meath Environmental Platform

Observations for Trim Patrick St

Time AQI Temp °C Hum % Pres Pa CO μg/m³ H₂S μg/m³ NO μg/m³ NO₂ μg/m³ O₃ μg/m³ SO₂ μg/m³ PM1 μg/m³ PM2.5 μg/m³ PM10 μg/m³
Tuesday 4 August 2026
03:49 1 16.5 87 38,459 0.17 0 2.28 6.77 44.91 0 8 10.93 12.03
03:48 1 16.5 87 38,459 0.18 0 2.3 2.78 40.27 0 7.14 10.25 11.27
03:47 1 16.5 87 38,459 0.17 0 2.29 11.51 52.08 0 7.14 10.93 12.03
03:43 1 16.5 87 38,459 0.17 0 2.28 7.5 45.47 0 6.29 9.57 10.53
03:42 1 16.5 87 38,459 0.16 0 2.27 8.02 52.82 0 8 11.63 12.8
03:38 1 16.5 87 38,459 0.17 0 2.23 5.19 47.49 0 7.14 10.26 11.28
03:36 1 16.4 87 38,459 0.18 0 2.23 7.11 48.95 0 7.14 9.57 10.53
03:34 1 16.4 87 38,459 0.2 0 2.24 6.31 51.24 0 8 11.63 12.8
03:30 1 16.4 87 38,459 0.16 0 1.2 14.46 28.98 0 9.71 12.3 13.53
03:29 1 16.4 87 38,459 0.17 0 1.21 21.96 32.84 0 8.86 12.31 13.54
03:28 1 16.4 87 38,459 0.18 0 1.07 26.29 48.77 0 8.86 11.63 12.79
03:27 1 16.4 87 38,459 0.16 0 1.22 23.79 36.25 0 8.86 12.31 13.54
03:26 1 16.4 87 38,459 0.16 0 1.22 25.54 43.06 0 8 10.94 12.03
03:25 1 16.4 87 38,459 0.17 0 1.57 26.05 42.65 0 8.86 12.31 13.54
03:24 1 16.4 87 38,459 0.16 0 1.41 26.77 43.1 0 8.86 13 14.3
03:23 1 16.3 87 38,459 0.17 0 1.43 16.04 25.99 0 9.71 12.31 13.54
03:22 1 16.3 87 38,459 0.18 0 1.51 24.45 40.45 0 9.71 12.31 13.54
03:21 1 16.3 87 38,459 0.16 0 1.55 24.7 35.07 0 8.86 13 14.3
03:20 1 16.4 87 38,459 0.16 0 1.28 25.05 43.1 0 8.86 11.63 12.79
03:19 1 16.4 87 38,459 0.16 0 1.1 26.53 48.37 0 8.86 11.63 12.79